Huvudsida
METAR-TAF:

METAR-TAF

Flygplatser :

Karleby-Jakobstad flygplats

Karleby, Finland

latitud: 63-43N, longitud: 023-09E, höjd: 25 m

Aktuellt väderrapport

Denna rapport gjordes för 12 minuter sedan, klockan 00:50 UTC
Vind 8 kt från syd/sydost
Temperatur 4°C
Fuktighet 87%
Tryck 1023 hPa
Sikt 10 km eller mer
Inga moln under 1 500 m eller inga cumulonimbus

METAR: EFKK 210050Z AUTO 16008KT CAVOK 04/02 Q1023

Tid: 04:02 (01:02 UTC)

Väderprognos

Denna rapport gjordes för 10 timmar och 26 minuter sedan, klockan 14:36 UTC
Prognos gäller från 20 kl. 15 UTC till 20 kl. 18 UTC
Vind 7 kt från väst/sydväst
Sikt 10 km eller mer
Inga moln under 1 500 m eller inga cumulonimbus

TAF: EFKK 201436Z 2015/2018 25007KT CAVOK

Aktuella väderrapporter och prognoser från 4000 flygplatser (METAR- och TAF-rapporter).

De tillgängliga stationerna syns som gula och röda prickar på kartan.

För musen över prickarna för att se namnen på stationerna.

Klicka sedan för att få väderrapporter och prognoser.

För att ändra kartan: Klicka på de gröna knapparna med ett svart kors på för att zooma in; den gröna knappen med ett streck på för att zooma ut; eller på de gröna pilarna för angränsande kartor.


METAR-TAF: